sensor_id;sensor_type;location;lat;lon;timestamp;P1;durP1;ratioP1;P2;durP2;ratioP2
57593;SDS011;43423;46.510;6.686;2023-05-07T00:00:20;8.75;;;5.80;;
57593;SDS011;43423;46.510;6.686;2023-05-07T00:03:06;9.43;;;5.90;;
57593;SDS011;43423;46.510;6.686;2023-05-07T00:05:31;9.32;;;5.50;;
57593;SDS011;43423;46.510;6.686;2023-05-07T00:07:57;9.13;;;5.45;;
57593;SDS011;43423;46.510;6.686;2023-05-07T00:10:22;10.98;;;5.82;;
57593;SDS011;43423;46.510;6.686;2023-05-07T00:12:48;10.48;;;5.50;;
57593;SDS011;43423;46.510;6.686;2023-05-07T00:15:13;8.55;;;5.85;;
57593;SDS011;43423;46.510;6.686;2023-05-07T00:17:39;8.48;;;5.68;;
57593;SDS011;43423;46.510;6.686;2023-05-07T00:20:05;7.70;;;5.55;;
57593;SDS011;43423;46.510;6.686;2023-05-07T00:22:31;7.90;;;5.18;;
57593;SDS011;43423;46.510;6.686;2023-05-07T00:24:57;9.52;;;5.78;;
57593;SDS011;43423;46.510;6.686;2023-05-07T00:27:24;8.55;;;5.60;;
57593;SDS011;43423;46.510;6.686;2023-05-07T00:29:49;9.75;;;5.68;;
57593;SDS011;43423;46.510;6.686;2023-05-07T00:32:15;8.90;;;5.57;;
57593;SDS011;43423;46.510;6.686;2023-05-07T00:34:41;6.40;;;5.35;;
57593;SDS011;43423;46.510;6.686;2023-05-07T00:37:06;8.80;;;5.40;;
57593;SDS011;43423;46.510;6.686;2023-05-07T00:39:35;10.63;;;5.55;;
57593;SDS011;43423;46.510;6.686;2023-05-07T00:42:01;10.00;;;5.75;;
57593;SDS011;43423;46.510;6.686;2023-05-07T00:44:27;9.50;;;5.32;;
57593;SDS011;43423;46.510;6.686;2023-05-07T00:46:53;11.05;;;5.72;;
57593;SDS011;43423;46.510;6.686;2023-05-07T00:49:19;10.10;;;5.60;;
57593;SDS011;43423;46.510;6.686;2023-05-07T00:51:45;9.63;;;6.50;;
57593;SDS011;43423;46.510;6.686;2023-05-07T00:54:12;8.65;;;6.43;;
57593;SDS011;43423;46.510;6.686;2023-05-07T00:56:38;12.48;;;5.50;;
57593;SDS011;43423;46.510;6.686;2023-05-07T00:59:05;12.02;;;6.18;;
57593;SDS011;43423;46.510;6.686;2023-05-07T01:01:31;10.90;;;5.47;;
57593;SDS011;43423;46.510;6.686;2023-05-07T01:03:56;11.95;;;6.25;;
57593;SDS011;43423;46.510;6.686;2023-05-07T01:06:23;10.48;;;6.20;;
57593;SDS011;43423;46.510;6.686;2023-05-07T01:08:50;9.43;;;5.82;;
57593;SDS011;43423;46.510;6.686;2023-05-07T01:11:18;8.13;;;5.68;;
57593;SDS011;43423;46.510;6.686;2023-05-07T01:13:45;10.73;;;5.63;;
57593;SDS011;43423;46.510;6.686;2023-05-07T01:16:12;8.95;;;5.97;;
57593;SDS011;43423;46.510;6.686;2023-05-07T01:18:39;11.57;;;5.90;;
57593;SDS011;43423;46.510;6.686;2023-05-07T01:21:05;6.18;;;5.25;;
57593;SDS011;43423;46.510;6.686;2023-05-07T01:23:32;10.43;;;5.68;;
57593;SDS011;43423;46.510;6.686;2023-05-07T01:25:59;8.40;;;5.50;;
57593;SDS011;43423;46.510;6.686;2023-05-07T01:28:24;8.68;;;5.68;;
57593;SDS011;43423;46.510;6.686;2023-05-07T01:30:51;6.05;;;5.10;;
57593;SDS011;43423;46.510;6.686;2023-05-07T01:33:21;8.32;;;5.30;;
57593;SDS011;43423;46.510;6.686;2023-05-07T01:35:48;8.90;;;5.55;;
57593;SDS011;43423;46.510;6.686;2023-05-07T01:38:16;6.10;;;4.93;;
57593;SDS011;43423;46.510;6.686;2023-05-07T01:40:43;8.45;;;5.68;;
57593;SDS011;43423;46.510;6.686;2023-05-07T01:43:09;9.07;;;6.15;;
57593;SDS011;43423;46.510;6.686;2023-05-07T01:45:35;8.80;;;6.28;;
57593;SDS011;43423;46.510;6.686;2023-05-07T01:48:01;8.88;;;6.28;;
57593;SDS011;43423;46.510;6.686;2023-05-07T01:50:28;9.57;;;5.90;;
57593;SDS011;43423;46.510;6.686;2023-05-07T01:52:54;7.93;;;5.43;;
57593;SDS011;43423;46.510;6.686;2023-05-07T01:55:20;8.18;;;5.18;;
57593;SDS011;43423;46.510;6.686;2023-05-07T01:57:45;9.23;;;6.15;;
57593;SDS011;43423;46.510;6.686;2023-05-07T02:00:11;8.90;;;5.60;;
57593;SDS011;43423;46.510;6.686;2023-05-07T02:02:37;9.10;;;6.03;;
57593;SDS011;43423;46.510;6.686;2023-05-07T02:05:03;8.45;;;5.90;;
57593;SDS011;43423;46.510;6.686;2023-05-07T02:07:29;13.88;;;6.72;;
57593;SDS011;43423;46.510;6.686;2023-05-07T02:09:55;10.70;;;5.97;;
57593;SDS011;43423;46.510;6.686;2023-05-07T02:12:21;8.63;;;6.25;;
57593;SDS011;43423;46.510;6.686;2023-05-07T02:14:47;12.07;;;6.22;;
57593;SDS011;43423;46.510;6.686;2023-05-07T02:17:13;7.57;;;5.47;;
57593;SDS011;43423;46.510;6.686;2023-05-07T02:19:38;8.98;;;6.13;;
57593;SDS011;43423;46.510;6.686;2023-05-07T02:22:04;10.43;;;6.38;;
57593;SDS011;43423;46.510;6.686;2023-05-07T02:24:29;6.35;;;5.68;;
57593;SDS011;43423;46.510;6.686;2023-05-07T02:26:55;8.32;;;5.55;;
57593;SDS011;43423;46.510;6.686;2023-05-07T02:29:20;10.10;;;5.30;;
57593;SDS011;43423;46.510;6.686;2023-05-07T02:31:46;10.30;;;6.05;;
57593;SDS011;43423;46.510;6.686;2023-05-07T02:34:16;10.00;;;6.57;;
57593;SDS011;43423;46.510;6.686;2023-05-07T02:36:42;9.63;;;5.82;;
57593;SDS011;43423;46.510;6.686;2023-05-07T02:39:08;6.97;;;5.57;;
57593;SDS011;43423;46.510;6.686;2023-05-07T02:41:33;7.97;;;5.93;;
57593;SDS011;43423;46.510;6.686;2023-05-07T02:43:59;9.32;;;5.93;;
57593;SDS011;43423;46.510;6.686;2023-05-07T02:46:24;8.93;;;5.55;;
57593;SDS011;43423;46.510;6.686;2023-05-07T02:48:50;9.75;;;6.30;;
57593;SDS011;43423;46.510;6.686;2023-05-07T02:51:19;9.57;;;6.15;;
57593;SDS011;43423;46.510;6.686;2023-05-07T02:53:45;12.15;;;6.47;;
57593;SDS011;43423;46.510;6.686;2023-05-07T02:56:11;9.48;;;5.60;;
57593;SDS011;43423;46.510;6.686;2023-05-07T02:58:36;11.32;;;5.82;;
57593;SDS011;43423;46.510;6.686;2023-05-07T03:01:04;9.02;;;5.43;;
57593;SDS011;43423;46.510;6.686;2023-05-07T03:03:30;8.82;;;5.55;;
57593;SDS011;43423;46.510;6.686;2023-05-07T03:05:56;8.57;;;5.82;;
57593;SDS011;43423;46.510;6.686;2023-05-07T03:08:22;7.60;;;5.72;;
57593;SDS011;43423;46.510;6.686;2023-05-07T03:10:47;8.20;;;6.25;;
57593;SDS011;43423;46.510;6.686;2023-05-07T03:13:13;10.20;;;5.93;;
57593;SDS011;43423;46.510;6.686;2023-05-07T03:15:39;7.70;;;5.65;;
57593;SDS011;43423;46.510;6.686;2023-05-07T03:18:04;7.72;;;5.57;;
57593;SDS011;43423;46.510;6.686;2023-05-07T03:20:30;7.82;;;5.53;;
57593;SDS011;43423;46.510;6.686;2023-05-07T03:22:56;8.63;;;6.13;;
57593;SDS011;43423;46.510;6.686;2023-05-07T03:25:21;7.90;;;5.80;;
57593;SDS011;43423;46.510;6.686;2023-05-07T03:27:47;9.60;;;5.97;;
57593;SDS011;43423;46.510;6.686;2023-05-07T03:30:12;11.15;;;6.30;;
57593;SDS011;43423;46.510;6.686;2023-05-07T03:32:38;12.25;;;6.10;;
57593;SDS011;43423;46.510;6.686;2023-05-07T03:35:03;8.38;;;5.82;;
57593;SDS011;43423;46.510;6.686;2023-05-07T03:37:29;7.45;;;5.47;;
57593;SDS011;43423;46.510;6.686;2023-05-07T03:39:55;7.90;;;5.70;;
57593;SDS011;43423;46.510;6.686;2023-05-07T03:42:21;8.82;;;5.15;;
57593;SDS011;43423;46.510;6.686;2023-05-07T03:44:46;13.82;;;6.10;;
57593;SDS011;43423;46.510;6.686;2023-05-07T03:47:12;8.98;;;5.90;;
57593;SDS011;43423;46.510;6.686;2023-05-07T03:49:38;8.57;;;6.22;;
57593;SDS011;43423;46.510;6.686;2023-05-07T03:52:05;10.25;;;6.20;;
57593;SDS011;43423;46.510;6.686;2023-05-07T03:54:31;9.50;;;5.88;;
57593;SDS011;43423;46.510;6.686;2023-05-07T03:56:57;7.93;;;5.78;;
57593;SDS011;43423;46.510;6.686;2023-05-07T03:59:22;9.90;;;6.20;;
57593;SDS011;43423;46.510;6.686;2023-05-07T04:01:48;8.60;;;5.43;;
57593;SDS011;43423;46.510;6.686;2023-05-07T04:04:16;11.30;;;6.20;;
57593;SDS011;43423;46.510;6.686;2023-05-07T04:06:42;9.55;;;6.20;;
57593;SDS011;43423;46.510;6.686;2023-05-07T04:09:07;9.63;;;5.95;;
57593;SDS011;43423;46.510;6.686;2023-05-07T04:11:33;12.90;;;6.40;;
57593;SDS011;43423;46.510;6.686;2023-05-07T04:13:59;13.70;;;6.32;;
57593;SDS011;43423;46.510;6.686;2023-05-07T04:16:25;12.52;;;6.75;;
57593;SDS011;43423;46.510;6.686;2023-05-07T04:18:50;9.77;;;5.95;;
57593;SDS011;43423;46.510;6.686;2023-05-07T04:21:17;10.38;;;7.07;;
57593;SDS011;43423;46.510;6.686;2023-05-07T04:23:43;9.93;;;6.45;;
57593;SDS011;43423;46.510;6.686;2023-05-07T04:26:09;9.75;;;7.03;;
57593;SDS011;43423;46.510;6.686;2023-05-07T04:28:34;9.02;;;5.78;;
57593;SDS011;43423;46.510;6.686;2023-05-07T04:31:00;8.60;;;5.90;;
57593;SDS011;43423;46.510;6.686;2023-05-07T04:33:26;8.90;;;6.70;;
57593;SDS011;43423;46.510;6.686;2023-05-07T04:35:52;11.93;;;6.57;;
57593;SDS011;43423;46.510;6.686;2023-05-07T04:38:17;13.85;;;7.00;;
57593;SDS011;43423;46.510;6.686;2023-05-07T04:40:44;11.65;;;7.50;;
57593;SDS011;43423;46.510;6.686;2023-05-07T04:43:09;11.32;;;7.40;;
57593;SDS011;43423;46.510;6.686;2023-05-07T04:45:36;9.93;;;6.97;;
57593;SDS011;43423;46.510;6.686;2023-05-07T04:48:02;9.32;;;6.70;;
57593;SDS011;43423;46.510;6.686;2023-05-07T04:50:27;11.52;;;7.15;;
57593;SDS011;43423;46.510;6.686;2023-05-07T04:52:53;13.82;;;7.18;;
57593;SDS011;43423;46.510;6.686;2023-05-07T04:55:19;12.05;;;6.93;;
57593;SDS011;43423;46.510;6.686;2023-05-07T04:57:44;10.73;;;6.55;;
57593;SDS011;43423;46.510;6.686;2023-05-07T05:00:10;11.48;;;6.85;;
57593;SDS011;43423;46.510;6.686;2023-05-07T05:02:39;8.82;;;6.43;;
57593;SDS011;43423;46.510;6.686;2023-05-07T05:05:05;11.25;;;6.95;;
57593;SDS011;43423;46.510;6.686;2023-05-07T05:07:31;9.30;;;6.55;;
57593;SDS011;43423;46.510;6.686;2023-05-07T05:09:56;9.55;;;6.35;;
57593;SDS011;43423;46.510;6.686;2023-05-07T05:12:22;13.10;;;6.65;;
57593;SDS011;43423;46.510;6.686;2023-05-07T05:14:48;11.63;;;6.78;;
57593;SDS011;43423;46.510;6.686;2023-05-07T05:17:13;7.85;;;6.45;;
57593;SDS011;43423;46.510;6.686;2023-05-07T05:19:39;12.13;;;6.97;;
57593;SDS011;43423;46.510;6.686;2023-05-07T05:22:05;9.02;;;6.43;;
57593;SDS011;43423;46.510;6.686;2023-05-07T05:24:31;8.93;;;6.60;;
57593;SDS011;43423;46.510;6.686;2023-05-07T05:26:56;14.32;;;6.63;;
57593;SDS011;43423;46.510;6.686;2023-05-07T05:29:22;11.20;;;7.05;;
57593;SDS011;43423;46.510;6.686;2023-05-07T05:31:47;9.98;;;6.80;;
57593;SDS011;43423;46.510;6.686;2023-05-07T05:34:13;10.57;;;7.10;;
57593;SDS011;43423;46.510;6.686;2023-05-07T05:36:39;9.73;;;6.53;;
57593;SDS011;43423;46.510;6.686;2023-05-07T05:39:04;10.55;;;7.32;;
57593;SDS011;43423;46.510;6.686;2023-05-07T05:41:31;10.85;;;7.60;;
57593;SDS011;43423;46.510;6.686;2023-05-07T05:43:56;13.55;;;8.23;;
57593;SDS011;43423;46.510;6.686;2023-05-07T05:46:22;13.23;;;8.27;;
57593;SDS011;43423;46.510;6.686;2023-05-07T05:48:47;11.05;;;7.47;;
57593;SDS011;43423;46.510;6.686;2023-05-07T05:51:13;11.70;;;7.30;;
57593;SDS011;43423;46.510;6.686;2023-05-07T05:53:39;13.68;;;7.50;;
57593;SDS011;43423;46.510;6.686;2023-05-07T05:56:04;14.65;;;8.05;;
57593;SDS011;43423;46.510;6.686;2023-05-07T05:58:30;10.70;;;8.00;;
57593;SDS011;43423;46.510;6.686;2023-05-07T06:00:56;10.15;;;8.13;;
57593;SDS011;43423;46.510;6.686;2023-05-07T06:03:21;11.85;;;8.23;;
57593;SDS011;43423;46.510;6.686;2023-05-07T06:05:47;10.07;;;7.63;;
57593;SDS011;43423;46.510;6.686;2023-05-07T06:08:13;11.45;;;7.82;;
57593;SDS011;43423;46.510;6.686;2023-05-07T06:10:38;13.48;;;7.93;;
57593;SDS011;43423;46.510;6.686;2023-05-07T06:13:04;11.13;;;7.63;;
57593;SDS011;43423;46.510;6.686;2023-05-07T06:15:30;16.60;;;8.50;;
57593;SDS011;43423;46.510;6.686;2023-05-07T06:17:56;11.93;;;7.60;;
57593;SDS011;43423;46.510;6.686;2023-05-07T06:20:22;9.25;;;7.53;;
57593;SDS011;43423;46.510;6.686;2023-05-07T06:22:48;11.70;;;8.05;;
57593;SDS011;43423;46.510;6.686;2023-05-07T06:25:14;12.48;;;7.82;;
57593;SDS011;43423;46.510;6.686;2023-05-07T06:27:40;17.00;;;8.60;;
57593;SDS011;43423;46.510;6.686;2023-05-07T06:30:05;14.77;;;8.05;;
57593;SDS011;43423;46.510;6.686;2023-05-07T06:32:32;10.70;;;7.70;;
57593;SDS011;43423;46.510;6.686;2023-05-07T06:34:57;10.50;;;7.10;;
57593;SDS011;43423;46.510;6.686;2023-05-07T06:37:23;10.45;;;6.22;;
57593;SDS011;43423;46.510;6.686;2023-05-07T06:39:48;9.90;;;6.15;;
57593;SDS011;43423;46.510;6.686;2023-05-07T06:42:14;11.85;;;6.18;;
57593;SDS011;43423;46.510;6.686;2023-05-07T06:44:39;10.23;;;6.60;;
57593;SDS011;43423;46.510;6.686;2023-05-07T06:47:05;10.13;;;7.15;;
57593;SDS011;43423;46.510;6.686;2023-05-07T06:49:30;12.00;;;7.70;;
57593;SDS011;43423;46.510;6.686;2023-05-07T06:51:56;10.73;;;7.45;;
57593;SDS011;43423;46.510;6.686;2023-05-07T06:54:22;13.57;;;8.13;;
57593;SDS011;43423;46.510;6.686;2023-05-07T06:56:48;12.35;;;7.45;;
57593;SDS011;43423;46.510;6.686;2023-05-07T06:59:14;13.40;;;8.10;;
57593;SDS011;43423;46.510;6.686;2023-05-07T07:01:40;11.23;;;8.25;;
57593;SDS011;43423;46.510;6.686;2023-05-07T07:04:05;15.95;;;7.75;;
57593;SDS011;43423;46.510;6.686;2023-05-07T07:06:31;10.98;;;7.10;;
57593;SDS011;43423;46.510;6.686;2023-05-07T07:08:57;13.32;;;7.68;;
57593;SDS011;43423;46.510;6.686;2023-05-07T07:11:23;13.45;;;7.97;;
57593;SDS011;43423;46.510;6.686;2023-05-07T07:13:48;11.90;;;7.70;;
57593;SDS011;43423;46.510;6.686;2023-05-07T07:16:15;12.30;;;7.65;;
57593;SDS011;43423;46.510;6.686;2023-05-07T07:18:40;11.07;;;7.93;;
57593;SDS011;43423;46.510;6.686;2023-05-07T07:21:06;15.80;;;7.60;;
57593;SDS011;43423;46.510;6.686;2023-05-07T07:23:31;12.43;;;7.60;;
57593;SDS011;43423;46.510;6.686;2023-05-07T07:25:57;10.85;;;7.22;;
57593;SDS011;43423;46.510;6.686;2023-05-07T07:28:23;10.63;;;7.00;;
57593;SDS011;43423;46.510;6.686;2023-05-07T07:30:48;11.45;;;7.03;;
57593;SDS011;43423;46.510;6.686;2023-05-07T07:33:14;9.60;;;7.28;;
57593;SDS011;43423;46.510;6.686;2023-05-07T07:35:40;11.95;;;6.63;;
57593;SDS011;43423;46.510;6.686;2023-05-07T07:38:05;11.55;;;6.85;;
57593;SDS011;43423;46.510;6.686;2023-05-07T07:40:31;14.32;;;7.60;;
57593;SDS011;43423;46.510;6.686;2023-05-07T07:42:57;13.20;;;7.07;;
57593;SDS011;43423;46.510;6.686;2023-05-07T07:45:22;10.50;;;6.70;;
57593;SDS011;43423;46.510;6.686;2023-05-07T07:47:48;12.40;;;7.88;;
57593;SDS011;43423;46.510;6.686;2023-05-07T07:50:14;10.52;;;6.82;;
57593;SDS011;43423;46.510;6.686;2023-05-07T07:52:39;8.85;;;6.43;;
57593;SDS011;43423;46.510;6.686;2023-05-07T07:55:05;10.52;;;6.28;;
57593;SDS011;43423;46.510;6.686;2023-05-07T07:57:31;12.80;;;6.82;;
57593;SDS011;43423;46.510;6.686;2023-05-07T07:59:56;13.23;;;6.72;;
57593;SDS011;43423;46.510;6.686;2023-05-07T08:02:22;10.38;;;6.63;;
57593;SDS011;43423;46.510;6.686;2023-05-07T08:04:47;9.95;;;5.78;;
57593;SDS011;43423;46.510;6.686;2023-05-07T08:07:13;7.15;;;6.00;;
57593;SDS011;43423;46.510;6.686;2023-05-07T08:09:39;9.00;;;6.35;;
57593;SDS011;43423;46.510;6.686;2023-05-07T08:12:05;13.95;;;6.80;;
57593;SDS011;43423;46.510;6.686;2023-05-07T08:14:32;12.15;;;7.93;;
57593;SDS011;43423;46.510;6.686;2023-05-07T08:16:58;8.88;;;6.45;;
57593;SDS011;43423;46.510;6.686;2023-05-07T08:19:23;9.45;;;6.93;;
57593;SDS011;43423;46.510;6.686;2023-05-07T08:21:49;11.07;;;7.20;;
57593;SDS011;43423;46.510;6.686;2023-05-07T08:24:16;12.10;;;8.15;;
57593;SDS011;43423;46.510;6.686;2023-05-07T08:26:42;13.63;;;8.20;;
57593;SDS011;43423;46.510;6.686;2023-05-07T08:29:09;11.93;;;8.95;;
57593;SDS011;43423;46.510;6.686;2023-05-07T08:31:34;12.13;;;8.10;;
57593;SDS011;43423;46.510;6.686;2023-05-07T08:34:00;13.82;;;8.65;;
57593;SDS011;43423;46.510;6.686;2023-05-07T08:36:25;15.15;;;8.65;;
57593;SDS011;43423;46.510;6.686;2023-05-07T08:38:51;18.40;;;8.55;;
57593;SDS011;43423;46.510;6.686;2023-05-07T08:41:17;11.95;;;7.75;;
57593;SDS011;43423;46.510;6.686;2023-05-07T08:43:45;11.23;;;7.85;;
57593;SDS011;43423;46.510;6.686;2023-05-07T08:46:14;13.02;;;8.13;;
57593;SDS011;43423;46.510;6.686;2023-05-07T08:51:12;8.55;;;6.20;;
57593;SDS011;43423;46.510;6.686;2023-05-07T08:53:42;8.20;;;6.00;;
57593;SDS011;43423;46.510;6.686;2023-05-07T08:56:08;8.52;;;6.63;;
57593;SDS011;43423;46.510;6.686;2023-05-07T08:58:34;11.27;;;7.35;;
57593;SDS011;43423;46.510;6.686;2023-05-07T09:01:06;9.85;;;6.80;;
57593;SDS011;43423;46.510;6.686;2023-05-07T09:03:33;10.23;;;6.05;;
57593;SDS011;43423;46.510;6.686;2023-05-07T09:05:59;14.40;;;6.78;;
57593;SDS011;43423;46.510;6.686;2023-05-07T09:08:26;11.00;;;6.40;;
57593;SDS011;43423;46.510;6.686;2023-05-07T09:10:52;9.73;;;5.72;;
57593;SDS011;43423;46.510;6.686;2023-05-07T09:13:18;7.90;;;5.57;;
57593;SDS011;43423;46.510;6.686;2023-05-07T09:15:44;12.52;;;7.05;;
57593;SDS011;43423;46.510;6.686;2023-05-07T09:18:10;8.50;;;6.00;;
57593;SDS011;43423;46.510;6.686;2023-05-07T09:20:36;8.32;;;5.22;;
57593;SDS011;43423;46.510;6.686;2023-05-07T09:23:02;7.28;;;5.38;;
57593;SDS011;43423;46.510;6.686;2023-05-07T09:25:28;5.43;;;4.93;;
57593;SDS011;43423;46.510;6.686;2023-05-07T09:27:55;7.10;;;5.25;;
57593;SDS011;43423;46.510;6.686;2023-05-07T09:30:20;7.40;;;5.13;;
57593;SDS011;43423;46.510;6.686;2023-05-07T09:32:46;7.22;;;5.70;;
57593;SDS011;43423;46.510;6.686;2023-05-07T09:35:15;8.38;;;6.00;;
57593;SDS011;43423;46.510;6.686;2023-05-07T09:37:42;9.68;;;5.65;;
57593;SDS011;43423;46.510;6.686;2023-05-07T09:40:07;8.88;;;5.00;;
57593;SDS011;43423;46.510;6.686;2023-05-07T09:42:37;8.77;;;4.72;;
57593;SDS011;43423;46.510;6.686;2023-05-07T09:45:04;8.38;;;4.80;;
57593;SDS011;43423;46.510;6.686;2023-05-07T09:47:32;7.07;;;5.20;;
57593;SDS011;43423;46.510;6.686;2023-05-07T09:50:00;8.90;;;5.60;;
57593;SDS011;43423;46.510;6.686;2023-05-07T09:52:30;8.18;;;4.70;;
57593;SDS011;43423;46.510;6.686;2023-05-07T09:54:58;7.40;;;4.93;;
57593;SDS011;43423;46.510;6.686;2023-05-07T09:57:25;10.95;;;4.90;;
57593;SDS011;43423;46.510;6.686;2023-05-07T09:59:51;8.55;;;5.80;;
57593;SDS011;43423;46.510;6.686;2023-05-07T10:02:18;7.18;;;5.65;;
57593;SDS011;43423;46.510;6.686;2023-05-07T10:04:45;7.05;;;4.75;;
57593;SDS011;43423;46.510;6.686;2023-05-07T10:07:13;7.10;;;4.32;;
57593;SDS011;43423;46.510;6.686;2023-05-07T10:09:39;5.80;;;4.55;;
57593;SDS011;43423;46.510;6.686;2023-05-07T10:12:07;7.38;;;4.13;;
57593;SDS011;43423;46.510;6.686;2023-05-07T10:14:33;6.13;;;3.55;;
57593;SDS011;43423;46.510;6.686;2023-05-07T10:17:00;6.55;;;4.28;;
57593;SDS011;43423;46.510;6.686;2023-05-07T10:19:27;6.65;;;4.13;;
57593;SDS011;43423;46.510;6.686;2023-05-07T10:21:55;6.82;;;4.15;;
57593;SDS011;43423;46.510;6.686;2023-05-07T10:24:27;8.50;;;4.68;;
57593;SDS011;43423;46.510;6.686;2023-05-07T10:26:57;5.32;;;3.60;;
57593;SDS011;43423;46.510;6.686;2023-05-07T10:29:35;6.70;;;4.15;;
57593;SDS011;43423;46.510;6.686;2023-05-07T10:34:56;5.22;;;3.83;;
57593;SDS011;43423;46.510;6.686;2023-05-07T10:37:26;5.85;;;3.78;;
57593;SDS011;43423;46.510;6.686;2023-05-07T10:39:52;5.55;;;4.00;;
57593;SDS011;43423;46.510;6.686;2023-05-07T10:42:17;6.18;;;4.32;;
57593;SDS011;43423;46.510;6.686;2023-05-07T10:44:43;4.82;;;4.10;;
57593;SDS011;43423;46.510;6.686;2023-05-07T10:47:09;7.70;;;4.15;;
57593;SDS011;43423;46.510;6.686;2023-05-07T10:49:37;4.57;;;3.85;;
57593;SDS011;43423;46.510;6.686;2023-05-07T10:52:22;6.93;;;4.13;;
57593;SDS011;43423;46.510;6.686;2023-05-07T10:55:18;7.30;;;4.15;;
57593;SDS011;43423;46.510;6.686;2023-05-07T10:57:42;6.80;;;4.78;;
57593;SDS011;43423;46.510;6.686;2023-05-07T11:05:26;5.93;;;4.40;;
57593;SDS011;43423;46.510;6.686;2023-05-07T11:07:54;5.50;;;4.50;;
57593;SDS011;43423;46.510;6.686;2023-05-07T11:10:21;8.57;;;5.18;;
57593;SDS011;43423;46.510;6.686;2023-05-07T11:12:48;8.25;;;5.28;;
57593;SDS011;43423;46.510;6.686;2023-05-07T11:15:14;7.03;;;4.35;;
57593;SDS011;43423;46.510;6.686;2023-05-07T11:17:53;8.75;;;4.65;;
57593;SDS011;43423;46.510;6.686;2023-05-07T11:20:20;7.03;;;4.40;;
57593;SDS011;43423;46.510;6.686;2023-05-07T11:23:06;10.43;;;4.60;;
57593;SDS011;43423;46.510;6.686;2023-05-07T11:25:31;9.32;;;4.63;;
57593;SDS011;43423;46.510;6.686;2023-05-07T11:28:03;6.80;;;5.28;;
57593;SDS011;43423;46.510;6.686;2023-05-07T11:30:30;8.73;;;5.47;;
57593;SDS011;43423;46.510;6.686;2023-05-07T11:32:56;7.60;;;4.60;;
57593;SDS011;43423;46.510;6.686;2023-05-07T11:35:22;7.00;;;5.13;;
57593;SDS011;43423;46.510;6.686;2023-05-07T11:37:48;7.75;;;4.50;;
57593;SDS011;43423;46.510;6.686;2023-05-07T11:40:14;8.73;;;5.20;;
57593;SDS011;43423;46.510;6.686;2023-05-07T11:42:40;12.00;;;4.82;;
57593;SDS011;43423;46.510;6.686;2023-05-07T11:45:07;6.70;;;4.90;;
57593;SDS011;43423;46.510;6.686;2023-05-07T11:47:33;7.82;;;4.95;;
57593;SDS011;43423;46.510;6.686;2023-05-07T11:50:06;6.72;;;5.03;;
57593;SDS011;43423;46.510;6.686;2023-05-07T11:52:33;7.25;;;4.60;;
57593;SDS011;43423;46.510;6.686;2023-05-07T11:54:59;6.97;;;4.68;;
57593;SDS011;43423;46.510;6.686;2023-05-07T11:57:26;7.40;;;4.65;;
57593;SDS011;43423;46.510;6.686;2023-05-07T11:59:59;16.95;;;5.13;;
57593;SDS011;43423;46.510;6.686;2023-05-07T12:02:27;9.43;;;5.50;;
57593;SDS011;43423;46.510;6.686;2023-05-07T12:04:53;7.43;;;5.30;;
57593;SDS011;43423;46.510;6.686;2023-05-07T12:07:20;6.65;;;5.28;;
57593;SDS011;43423;46.510;6.686;2023-05-07T12:09:46;6.57;;;4.90;;
57593;SDS011;43423;46.510;6.686;2023-05-07T12:12:13;11.18;;;5.68;;
57593;SDS011;43423;46.510;6.686;2023-05-07T12:14:43;13.23;;;6.10;;
57593;SDS011;43423;46.510;6.686;2023-05-07T12:17:10;7.10;;;4.85;;
57593;SDS011;43423;46.510;6.686;2023-05-07T12:19:37;7.10;;;5.25;;
57593;SDS011;43423;46.510;6.686;2023-05-07T12:22:04;9.32;;;5.93;;
57593;SDS011;43423;46.510;6.686;2023-05-07T12:24:44;13.98;;;8.35;;
57593;SDS011;43423;46.510;6.686;2023-05-07T12:27:11;28.13;;;16.33;;
57593;SDS011;43423;46.510;6.686;2023-05-07T12:29:36;30.95;;;17.55;;
57593;SDS011;43423;46.510;6.686;2023-05-07T12:32:06;26.13;;;13.50;;
57593;SDS011;43423;46.510;6.686;2023-05-07T12:34:32;31.08;;;14.52;;
57593;SDS011;43423;46.510;6.686;2023-05-07T12:36:57;13.70;;;8.65;;
57593;SDS011;43423;46.510;6.686;2023-05-07T12:39:27;11.98;;;6.40;;
57593;SDS011;43423;46.510;6.686;2023-05-07T12:41:56;9.00;;;5.45;;
57593;SDS011;43423;46.510;6.686;2023-05-07T12:44:31;6.95;;;5.68;;
57593;SDS011;43423;46.510;6.686;2023-05-07T12:46:58;12.55;;;5.82;;
57593;SDS011;43423;46.510;6.686;2023-05-07T12:49:26;8.00;;;6.00;;
57593;SDS011;43423;46.510;6.686;2023-05-07T12:51:53;10.35;;;6.10;;
57593;SDS011;43423;46.510;6.686;2023-05-07T12:54:31;10.85;;;6.38;;
57593;SDS011;43423;46.510;6.686;2023-05-07T12:57:01;11.57;;;6.35;;
57593;SDS011;43423;46.510;6.686;2023-05-07T12:59:31;13.35;;;6.30;;
57593;SDS011;43423;46.510;6.686;2023-05-07T13:02:00;9.13;;;5.95;;
57593;SDS011;43423;46.510;6.686;2023-05-07T13:04:26;10.13;;;5.70;;
57593;SDS011;43423;46.510;6.686;2023-05-07T13:06:52;8.20;;;5.25;;
57593;SDS011;43423;46.510;6.686;2023-05-07T13:09:17;7.88;;;5.72;;
57593;SDS011;43423;46.510;6.686;2023-05-07T13:11:43;7.18;;;5.10;;
57593;SDS011;43423;46.510;6.686;2023-05-07T13:14:08;9.18;;;5.68;;
57593;SDS011;43423;46.510;6.686;2023-05-07T13:16:34;8.75;;;6.00;;
57593;SDS011;43423;46.510;6.686;2023-05-07T13:18:59;8.70;;;5.60;;
57593;SDS011;43423;46.510;6.686;2023-05-07T13:21:25;10.27;;;6.53;;
57593;SDS011;43423;46.510;6.686;2023-05-07T13:23:52;7.68;;;5.40;;
57593;SDS011;43423;46.510;6.686;2023-05-07T13:26:17;6.72;;;5.30;;
57593;SDS011;43423;46.510;6.686;2023-05-07T13:28:43;7.13;;;5.38;;
57593;SDS011;43423;46.510;6.686;2023-05-07T13:31:09;6.22;;;4.55;;
57593;SDS011;43423;46.510;6.686;2023-05-07T13:33:34;7.53;;;4.75;;
57593;SDS011;43423;46.510;6.686;2023-05-07T13:36:01;5.10;;;3.90;;
57593;SDS011;43423;46.510;6.686;2023-05-07T13:38:29;7.80;;;5.25;;
57593;SDS011;43423;46.510;6.686;2023-05-07T13:40:55;8.85;;;5.32;;
57593;SDS011;43423;46.510;6.686;2023-05-07T13:43:20;6.97;;;5.45;;
57593;SDS011;43423;46.510;6.686;2023-05-07T13:45:46;9.30;;;5.80;;
57593;SDS011;43423;46.510;6.686;2023-05-07T13:48:11;7.35;;;5.20;;
57593;SDS011;43423;46.510;6.686;2023-05-07T13:50:37;6.72;;;4.78;;
57593;SDS011;43423;46.510;6.686;2023-05-07T13:53:02;5.03;;;3.80;;
57593;SDS011;43423;46.510;6.686;2023-05-07T13:55:28;9.48;;;4.22;;
57593;SDS011;43423;46.510;6.686;2023-05-07T13:57:58;6.68;;;4.10;;
57593;SDS011;43423;46.510;6.686;2023-05-07T14:00:26;7.72;;;4.07;;
57593;SDS011;43423;46.510;6.686;2023-05-07T14:02:52;7.03;;;3.95;;
57593;SDS011;43423;46.510;6.686;2023-05-07T14:05:18;7.38;;;3.70;;
57593;SDS011;43423;46.510;6.686;2023-05-07T14:07:44;9.27;;;4.32;;
57593;SDS011;43423;46.510;6.686;2023-05-07T14:10:10;5.65;;;3.53;;
57593;SDS011;43423;46.510;6.686;2023-05-07T14:12:36;3.42;;;2.65;;
57593;SDS011;43423;46.510;6.686;2023-05-07T14:15:02;7.70;;;3.30;;
57593;SDS011;43423;46.510;6.686;2023-05-07T14:17:28;6.07;;;3.60;;
57593;SDS011;43423;46.510;6.686;2023-05-07T14:19:54;6.00;;;3.15;;
57593;SDS011;43423;46.510;6.686;2023-05-07T14:22:20;6.18;;;3.30;;
57593;SDS011;43423;46.510;6.686;2023-05-07T14:24:47;6.32;;;4.05;;
57593;SDS011;43423;46.510;6.686;2023-05-07T14:27:12;3.85;;;3.38;;
57593;SDS011;43423;46.510;6.686;2023-05-07T14:29:38;4.95;;;3.08;;
57593;SDS011;43423;46.510;6.686;2023-05-07T14:32:03;3.85;;;2.80;;
57593;SDS011;43423;46.510;6.686;2023-05-07T14:34:29;6.45;;;3.33;;
57593;SDS011;43423;46.510;6.686;2023-05-07T14:36:55;6.88;;;3.20;;
57593;SDS011;43423;46.510;6.686;2023-05-07T14:39:21;7.57;;;3.20;;
57593;SDS011;43423;46.510;6.686;2023-05-07T14:41:46;7.00;;;3.22;;
57593;SDS011;43423;46.510;6.686;2023-05-07T14:44:12;7.75;;;3.10;;
57593;SDS011;43423;46.510;6.686;2023-05-07T14:46:37;7.85;;;3.67;;
57593;SDS011;43423;46.510;6.686;2023-05-07T14:49:03;3.65;;;2.85;;